• Join FlightAware (Why Join?)
  • Login
  • US Flag 
07:45PM EDT


 

Airport Tracker/Info


-or-


 

Live Flight TrackerFlight Track Log ✈ EXS224 ✈ 20-Apr-2013 ✈ GCTS / TFS - EGNM / LBA

Flight Track Log - Related Links

Times and Time Zones

All times are in EDT time to prevent confusion due to time zone crossing. See the EXS224 flight status page for this flight to view local times or setup timezone preferences in your user account.

Time Position Orientation Groundspeed Altitude Reporting Facility
EDT Latitude Longitude Course Direction KTS MPH feet Rate Location/Type
10:34AM 28.0560 -16.5220 73° East 171 197 2,400  Level FlightAware
10:34AM 28.0600 -16.5080 72° East 190 219 2,600 900 Climbing FlightAware
10:34AM 28.0680 -16.4820 71° East 219 252 3,000 1,080 Climbing FlightAware
10:35AM 28.0780 -16.4470 72° East 253 291 3,600 1,200 Climbing FlightAware
10:35AM 28.0880 -16.4150 70° East 274 315 4,100 1,920 Climbing FlightAware
10:36AM 28.1010 -16.3710 71° East 276 318 5,400 2,460 Climbing FlightAware
10:36AM 28.1140 -16.3310 70° East 281 323 6,600 2,400 Climbing FlightAware
10:37AM 28.1250 -16.2950 71° East 285 328 7,600 2,400 Climbing FlightAware
10:37AM 28.1380 -16.2520 71° East 287 330 8,800 2,400 Climbing FlightAware
10:38AM 28.1490 -16.2170 70° East 286 329 9,800 2,280 Climbing FlightAware
10:38AM 28.1720 -16.1550 67° East 302 348 11,500 2,280 Climbing FlightAware
10:39AM 28.1850 -16.1440 37° Northeast 308 354 11,900 2,160 Climbing FlightAware
10:39AM 28.2120 -16.1380 11° North 309 356 12,600 2,160 Climbing FlightAware
10:39AM 28.2270 -16.1410 350° North 322 371 13,000 2,280 Climbing FlightAware
10:40AM 28.2810 -16.1700 335° Northwest 318 366 14,500 1,800 Climbing FlightAware
10:41AM 28.3470 -16.1980 340° North 346 398 15,600 1,260 Climbing FlightAware
10:41AM 28.4120 -16.2240 341° North 376 433 16,300 1,500 Climbing FlightAware
10:42AM 28.4900 -16.2550 341° North 391 450 17,800 1,920 Climbing FlightAware
10:42AM 28.5360 -16.2630 351° North 395 455 18,600 1,800 Climbing FlightAware
10:43AM 28.6160 -16.2440 12° North 405 466 19,900 1,740 Climbing FlightAware
10:44AM 28.6910 -16.2350 North 407 468 21,100 1,680 Climbing FlightAware
10:44AM 28.7670 -16.2300 North 413 475 22,200 1,440 Climbing FlightAware
10:45AM 28.8550 -16.2230 North 421 484 23,200 1,380 Climbing FlightAware
10:46AM 28.9360 -16.2170 North 429 494 24,200 1,380 Climbing FlightAware
10:47AM 29.0240 -16.2110 North 435 501 25,200 1,260 Climbing FlightAware
10:47AM 29.1030 -16.2050 North 440 506 26,000 1,260 Climbing FlightAware
10:48AM 29.1860 -16.1980 North 444 511 26,900 1,200 Climbing FlightAware
10:49AM 29.2770 -16.1910 North 450 518 27,700 1,020 Climbing FlightAware
10:49AM 29.3610 -16.1850 North 455 524 28,400 720 Climbing FlightAware
10:50AM 29.4520 -16.1790 North 458 527 28,800 240 Climbing FlightAware
10:51AM 29.5240 -16.1740 North 458 527 28,800 840 Level FlightAware
10:52AM 29.6550 -16.1630 North 468 539 30,200 840 Climbing FlightAware
10:52AM 29.7290 -16.1590 North 468 539 30,200 1,560 Level FlightAware
10:53AM 29.8340 -16.1490 North 466 536 32,300 1,440 Climbing FlightAware
10:54AM 29.9200 -16.1440 North 466 536 32,300  Level FlightAware
10:54AM 29.9930 -16.1390 North 466 536 32,300  Level FlightAware
10:55AM 30.0660 -16.1350 North 466 536 32,300 1,020 Level FlightAware
10:56AM 30.2320 -16.1200 North 464 534 34,000 960 Climbing FlightAware
10:57AM 30.3300 -16.1130 North 463 533 34,000  Level FlightAware
10:58AM 30.4160 -16.1060 North 462 532 34,000  Level FlightAware
10:58AM 30.4920 -16.1010 North 461 531 34,000  Level FlightAware
10:59AM 30.6000 -16.0930 North 460 529 34,000  Level FlightAware
11:00AM 30.6940 -16.0860 North 460 529 34,000  Level FlightAware
11:00AM 30.7510 -16.0820 North 460 529 34,000  Level FlightAware
11:01AM 30.8650 -16.0750 North 460 529 34,000  Level FlightAware
11:02AM 30.9630 -16.0690 North 461 531 34,000  Level FlightAware
11:02AM 31.0440 -16.0640 North 461 531 34,000  Level FlightAware
11:03AM 31.1430 -16.0570 North 461 531 34,000  Level FlightAware
11:04AM 31.2030 -16.0550 North 461 531 34,000  Level FlightAware
11:04AM 31.2630 -16.0560 359° North 460 529 34,000  Level FlightAware
11:05AM 31.3460 -16.0590 358° North 460 529 34,000  Level FlightAware
11:05AM 31.4310 -16.0630 358° North 459 528 34,000  Level FlightAware
11:06AM 31.5260 -16.0680 357° North 459 528 34,000  Level FlightAware
11:07AM 31.6100 -16.0720 358° North 459 528 34,000 120 Level FlightAware
11:08AM 31.7080 -16.0770 358° North 460 529 34,200 540 Climbing FlightAware
11:08AM 31.7930 -16.0810 358° North 458 527 34,800 540 Climbing FlightAware
11:09AM 31.8890 -16.0850 358° North 462 532 35,000 120 Climbing FlightAware
11:10AM 31.9760 -16.0890 358° North 463 533 35,000  Level FlightAware
11:10AM 32.0620 -16.0930 358° North 463 533 35,000  Level FlightAware
11:11AM 32.1560 -16.0970 358° North 464 534 35,000  Level FlightAware
11:12AM 32.2430 -16.1010 358° North 464 534 35,000  Level FlightAware
11:13AM 32.3370 -16.1050 358° North 464 534 35,000  Level FlightAware
11:13AM 32.4250 -16.1090 358° North 465 535 35,000  Level FlightAware
11:14AM 32.5110 -16.1120 358° North 464 534 35,000  Level FlightAware
11:15AM 32.5970 -16.1150 358° North 464 534 35,000  Level FlightAware
11:15AM 32.6960 -16.1190 358° North 463 533 35,000  Level FlightAware
11:16AM 32.7810 -16.1220 358° North 462 532 35,000  Level FlightAware
11:17AM 32.8760 -16.1260 358° North 462 532 35,000  Level FlightAware
11:17AM 32.9610 -16.1300 358° North 462 532 35,000  Level FlightAware
11:18AM 33.0570 -16.1340 358° North 461 531 35,000  Level FlightAware
11:19AM 33.1450 -16.1380 358° North 461 531 35,000  Level FlightAware
11:19AM 33.2310 -16.1420 358° North 461 531 35,000  Level FlightAware
11:20AM 33.3170 -16.1450 358° North 461 531 35,000  Level FlightAware
11:21AM 33.4100 -16.1480 358° North 461 531 35,000  Level FlightAware
11:22AM 33.5090 -16.1500 359° North 461 531 35,000  Level FlightAware
11:22AM 33.5930 -16.1520 359° North 461 531 35,000  Level FlightAware
11:23AM 33.6880 -16.1560 358° North 461 531 35,000  Level FlightAware
11:24AM 33.7730 -16.1600 358° North 461 531 35,000  Level FlightAware
11:24AM 33.8710 -16.1640 358° North 460 529 35,000  Level FlightAware
11:25AM 33.9520 -16.1670 358° North 460 529 35,000  Level FlightAware
11:26AM 34.0420 -16.1710 358° North 459 528 35,000  Level FlightAware
11:27AM 34.1350 -16.1760 357° North 459 528 35,000  Level FlightAware
11:27AM 34.2200 -16.1790 358° North 459 528 35,000  Level FlightAware
11:28AM 34.3200 -16.1840 358° North 458 527 35,000  Level FlightAware
11:29AM 34.4100 -16.1900 357° North 458 527 35,000  Level FlightAware
11:30AM 34.4820 -16.1950 357° North 458 527 35,000  Level FlightAware
11:30AM 34.5540 -16.1990 357° North 458 527 35,000  Level FlightAware
11:31AM 34.6260 -16.2040 357° North 458 527 35,000  Level FlightAware
11:32AM 34.7160 -16.2100 357° North 458 527 35,000  Level FlightAware
11:32AM 34.7880 -16.2140 357° North 458 527 35,000  Level FlightAware
11:33AM 34.8600 -16.2190 357° North 458 527 35,000  Level FlightAware
11:34AM 34.9320 -16.2230 357° North 458 527 35,000  Level FlightAware
11:34AM 35.0030 -16.2280 357° North 458 527 35,000  Level FlightAware
11:35AM 35.0750 -16.2330 357° North 458 527 35,000  Level FlightAware
11:36AM 35.1470 -16.2370 357° North 458 527 35,000  Level FlightAware
11:37AM 35.2370 -16.2430 357° North 458 527 35,000  Level FlightAware
11:37AM 35.3090 -16.2480 357° North 458 527 35,000  Level FlightAware
11:40AM 35.5422 -16.1187 24° Northeast  Level Estimated
11:41AM 35.6435 -16.0623 24° Northeast  Level Estimated
11:42AM 35.7448 -16.0057 24° Northeast  Level Estimated
11:43AM 35.8461 -15.9489 24° Northeast  Level Estimated
11:44AM 35.9278 -15.9030 24° Northeast  Level Estimated
11:45AM 36.0291 -15.8460 24° Northeast  Level Estimated
11:46AM 36.1303 -15.7888 25° Northeast  Level Estimated
11:47AM 36.2315 -15.7315 25° Northeast  Level Estimated
11:48AM 36.3326 -15.6741 25° Northeast  Level Estimated
11:49AM 36.4337 -15.6165 25° Northeast  Level Estimated
11:50AM 36.5348 -15.5588 25° Northeast  Level Estimated
11:51AM 36.6165 -15.5120 25° Northeast  Level Estimated
11:52AM 36.7175 -15.4540 25° Northeast  Level Estimated
11:53AM 36.8185 -15.3958 25° Northeast  Level Estimated
11:54AM 36.9195 -15.3375 25° Northeast  Level Estimated
11:55AM 37.0205 -15.2790 25° Northeast  Level Estimated
11:56AM 37.1214 -15.2204 25° Northeast  Level Estimated
11:57AM 37.2223 -15.1616 25° Northeast  Level Estimated
11:58AM 37.3232 -15.1027 25° Northeast  Level Estimated
11:59AM 37.4046 -15.0549 25° Northeast  Level Estimated
12:00PM 37.5054 -14.9957 25° Northeast  Level Estimated
12:01PM 37.6062 -14.9363 25° Northeast  Level Estimated
12:02PM 37.7070 -14.8767 25° Northeast  Level Estimated
12:03PM 37.8077 -14.8170 25° Northeast  Level Estimated
12:04PM 37.9084 -14.7571 25° Northeast  Level Estimated
12:05PM 38.0091 -14.6971 25° Northeast  Level Estimated
12:06PM 38.1097 -14.6369 25° Northeast  Level Estimated
12:07PM 38.1910 -14.5881 25° Northeast  Level Estimated
12:08PM 38.2915 -14.5276 25° Northeast  Level Estimated
12:09PM 38.3921 -14.4669 25° Northeast  Level Estimated
12:10PM 38.4926 -14.4061 25° Northeast  Level Estimated
12:11PM 38.5931 -14.3451 25° Northeast  Level Estimated
12:12PM 38.6936 -14.2839 25° Northeast  Level Estimated
12:13PM 38.7940 -14.2225 25° Northeast  Level Estimated
12:14PM 38.8944 -14.1610 26° Northeast  Level Estimated
12:15PM 38.9947 -14.0993 26° Northeast  Level Estimated
12:16PM 39.0758 -14.0493 26° Northeast  Level Estimated
12:17PM 39.1761 -13.9873 26° Northeast  Level Estimated
12:18PM 39.2763 -13.9251 26° Northeast  Level Estimated
12:19PM 39.3766 -13.8627 26° Northeast  Level Estimated
12:20PM 39.4768 -13.8001 26° Northeast  Level Estimated
12:21PM 39.5769 -13.7374 26° Northeast  Level Estimated
12:22PM 39.6578 -13.6866 26° Northeast  Level Estimated
12:23PM 39.7579 -13.6235 26° Northeast  Level Estimated
12:24PM 39.8580 -13.5603 26° Northeast  Level Estimated
12:25PM 39.9580 -13.4968 26° Northeast  Level Estimated
12:26PM 40.0580 -13.4332 26° Northeast  Level Estimated
12:27PM 40.1580 -13.3694 26° Northeast  Level Estimated
12:28PM 40.2579 -13.3054 26° Northeast  Level Estimated
12:29PM 40.3386 -13.2535 26° Northeast  Level Estimated
12:30PM 40.4385 -13.1892 26° Northeast  Level Estimated
12:31PM 40.5383 -13.1247 26° Northeast  Level Estimated
12:32PM 40.6381 -13.0599 26° Northeast  Level Estimated
12:33PM 40.7379 -12.9950 26° Northeast  Level Estimated
12:34PM 40.8376 -12.9299 26° Northeast  Level Estimated
12:35PM 40.9373 -12.8646 26° Northeast  Level Estimated
12:36PM 41.0369 -12.7991 26° Northeast  Level Estimated
12:37PM 41.1174 -12.7460 26° Northeast  Level Estimated
12:38PM 41.2170 -12.6801 26° Northeast  Level Estimated
12:39PM 41.3165 -12.6141 26° Northeast  Level Estimated
12:40PM 41.4160 -12.5478 27° Northeast  Level Estimated
12:41PM 41.5155 -12.4813 27° Northeast  Level Estimated
12:42PM 41.6149 -12.4146 27° Northeast  Level Estimated
12:43PM 41.7143 -12.3477 27° Northeast  Level Estimated
12:44PM 41.7946 -12.2936 27° Northeast  Level Estimated
12:45PM 41.8939 -12.2263 27° Northeast  Level Estimated
12:46PM 41.9931 -12.1588 27° Northeast  Level Estimated
12:47PM 42.0924 -12.0912 27° Northeast  Level Estimated
12:48PM 42.1725 -12.0364 27° Northeast  Level Estimated
12:49PM 42.2717 -11.9683 27° Northeast  Level Estimated
12:50PM 42.3708 -11.9000 27° Northeast  Level Estimated
12:51PM 42.4699 -11.8315 27° Northeast  Level Estimated
12:52PM 42.5499 -11.7760 27° Northeast  Level Estimated
12:53PM 42.6489 -11.7071 27° Northeast  Level Estimated
12:54PM 42.7479 -11.6380 27° Northeast  Level Estimated
12:55PM 42.8468 -11.5687 27° Northeast  Level Estimated
12:56PM 42.9457 -11.4991 27° Northeast  Level Estimated
12:57PM 43.0446 -11.4294 27° Northeast  Level Estimated
12:58PM 43.1244 -11.3728 27° Northeast  Level Estimated
12:59PM 43.2231 -11.3027 27° Northeast  Level Estimated
01:00PM 43.3219 -11.2322 27° Northeast  Level Estimated
01:00PM 45.8720 -13.5730 27° Northeast 444 511 35,000  Level FlightAware
01:00PM 45.8970 -13.5600 20° North 444 511 35,000  Level FlightAware
01:01PM 45.9640 -13.5270 19° North 444 511 35,000  Level FlightAware
01:02PM 46.0300 -13.4950 19° North 444 511 35,000  Level FlightAware
01:02PM 46.1120 -13.4540 19° North 444 511 35,000  Level FlightAware
01:03PM 46.1780 -13.4210 19° North 444 511 35,000  Level FlightAware
01:04PM 46.2440 -13.3880 19° North 444 511 35,000  Level FlightAware
01:04PM 46.3100 -13.3550 19° North 444 511 35,000  Level FlightAware
01:05PM 46.3760 -13.3220 19° North 444 511 35,000  Level FlightAware
01:06PM 46.4590 -13.2810 19° North 444 511 35,000  Level FlightAware
01:07PM 46.5250 -13.2480 19° North 444 511 35,000  Level FlightAware
01:07PM 46.5910 -13.2150 19° North 444 511 35,000  Level FlightAware
01:08PM 46.6570 -13.1820 19° North 444 511 35,000  Level FlightAware
01:09PM 46.7230 -13.1490 19° North 444 511 35,000  Level FlightAware
01:09PM 46.8060 -13.1070 19° North 444 511 35,000  Level FlightAware
01:12PM 46.9761 -12.8848 42° Northeast  Level Estimated
01:13PM 47.0589 -12.7758 42° Northeast  Level Estimated
01:14PM 47.1417 -12.6666 42° Northeast  Level Estimated
01:15PM 47.2243 -12.5570 42° Northeast  Level Estimated
01:16PM 47.3068 -12.4470 42° Northeast  Level Estimated
01:17PM 47.3734 -12.3580 42° Northeast  Level Estimated
01:18PM 47.4557 -12.2474 42° Northeast  Level Estimated
01:19PM 47.5379 -12.1365 42° Northeast  Level Estimated
01:20PM 47.6200 -12.0253 42° Northeast  Level Estimated
01:21PM 47.7020 -11.9136 42° Northeast  Level Estimated
01:22PM 47.7840 -11.8017 43° Northeast  Level Estimated
01:23PM 47.8500 -11.7110 43° Northeast  Level Estimated
01:24PM 47.9317 -11.5984 43° Northeast  Level Estimated
01:25PM 48.0133 -11.4854 43° Northeast  Level Estimated
01:26PM 48.0948 -11.3721 43° Northeast  Level Estimated
01:27PM 48.1762 -11.2585 43° Northeast  Level Estimated
01:28PM 48.2574 -11.1444 43° Northeast  Level Estimated
01:29PM 48.3385 -11.0300 43° Northeast  Level Estimated
01:30PM 48.4196 -10.9153 43° Northeast  Level Estimated
01:31PM 48.4849 -10.8223 43° Northeast  Level Estimated
01:32PM 48.5657 -10.7069 43° Northeast  Level Estimated
01:33PM 48.6464 -10.5911 43° Northeast  Level Estimated
01:34PM 48.7270 -10.4749 44° Northeast  Level Estimated
01:35PM 48.8075 -10.3584 44° Northeast  Level Estimated
01:36PM 48.8879 -10.2415 44° Northeast  Level Estimated
01:37PM 48.9681 -10.1242 44° Northeast  Level Estimated
01:37PM 50.1680 -10.3110 44° Northeast 481 554 35,000  Level FlightAware
01:38PM 49.0482 -10.0065 44° Northeast  Level Estimated
01:38PM 50.2310 -10.2280 40° Northeast 482 555 35,000  Level FlightAware
01:39PM 50.3030 -10.1310 41° Northeast 481 554 35,000  Level FlightAware
01:40PM 50.3700 -10.0420 40° Northeast 481 554 35,000  Level FlightAware
01:40PM 50.4280 -9.9660 40° Northeast 481 554 35,000  Level FlightAware
01:41PM 50.4860 -9.8900 40° Northeast 481 554 35,000  Level FlightAware
01:42PM 50.6160 -9.7100 41° Northeast 480 552 35,000  Level FlightAware
01:43PM 50.6840 -9.6180 41° Northeast 480 552 35,000  Level FlightAware
01:43PM 50.7510 -9.5270 41° Northeast 480 552 35,000  Level FlightAware
01:44PM 50.8180 -9.4370 40° Northeast 481 554 35,000  Level FlightAware
01:45PM 50.9170 -9.3000 41° Northeast 481 554 35,000  Level FlightAware
01:46PM 50.9840 -9.2090 41° Northeast 481 554 35,000  Level FlightAware
01:46PM 51.0540 -9.1110 41° Northeast 481 554 35,000  Level FlightAware
01:47PM 51.1270 -9.0100 41° Northeast 481 554 35,000 -1,680 Level FlightAware
01:47PM 51.1674 -8.9736 41° Northeast 444 511 33,500 -2,760 Descending FlightAware UK
01:48PM 51.1975 -8.9319 41° Northeast 446 513 33,500 3,000 Level FlightAware UK
01:48PM 51.2040 -8.9040 41° Northeast 481 554 35,000  Climbing FlightAware
01:48PM 51.2474 -8.8620 41° Northeast 446 513 33,500 -2,520 Descending FlightAware UK
01:48PM 51.2773 -8.8200 41° Northeast 446 513 33,500 4,080 Level FlightAware UK
01:48PM 51.2660 -8.8160 41° Northeast 482 555 35,000  Climbing FlightAware
01:49PM 51.3172 -8.7641 41° Northeast 444 511 33,500 -2,400 Descending FlightAware UK
01:49PM 51.3470 -8.7219 41° Northeast 444 511 33,500 4,500 Level FlightAware UK
01:49PM 51.3350 -8.7190 41° Northeast 483 556 35,000  Climbing FlightAware
01:49PM 51.3769 -8.6795 41° Northeast 446 513 33,500 -2,700 Descending FlightAware UK
01:50PM 51.4066 -8.6372 42° Northeast 446 513 33,500 3,060 Level FlightAware UK
01:50PM 51.4130 -8.6090 42° Northeast 483 556 35,000  Climbing FlightAware
01:50PM 51.4563 -8.5664 42° Northeast 446 513 33,500  Descending FlightAware UK
01:50PM 51.4700 -8.5280 42° Northeast 483 556 35,000  Climbing FlightAware
01:50PM 51.4862 -8.5237 42° Northeast 446 513 33,500 -4,500 Descending FlightAware UK
01:51PM 51.5161 -8.4810 42° Northeast 446 513 33,500  Level FlightAware UK
01:51PM 51.5461 -8.4383 42° Northeast 446 513 33,500 3,000 Level FlightAware UK
01:51PM 51.5410 -8.4270 42° Northeast 477 549 35,000  Climbing FlightAware
01:52PM 51.5959 -8.3670 42° Northeast 448 516 33,500 -2,520 Descending FlightAware UK
01:52PM 51.6257 -8.3241 42° Northeast 448 516 33,500 4,080 Level FlightAware UK
01:52PM 51.6170 -8.3180 42° Northeast 477 549 35,000  Climbing FlightAware
01:52PM 51.6654 -8.2670 42° Northeast 446 513 33,500 -2,400 Descending FlightAware UK
01:53PM 51.6955 -8.2235 42° Northeast 448 516 33,500 4,500 Level FlightAware UK
01:53PM 51.6840 -8.2220 42° Northeast 477 549 35,000  Climbing FlightAware
01:53PM 51.7253 -8.1805 42° Northeast 448 516 33,500 -2,700 Descending FlightAware UK
01:53PM 51.7550 -8.1374 42° Northeast 448 516 33,500 3,060 Level FlightAware UK
01:53PM 51.7590 -8.1140 42° Northeast 476 548 35,000  Climbing FlightAware
01:54PM 51.8046 -8.0660 42° Northeast 446 513 33,500 -2,460 Descending FlightAware UK
01:54PM 51.8343 -8.0232 42° Northeast 442 509 33,500 2,460 Level FlightAware UK
01:54PM 51.8500 -7.9810 42° Northeast 469 540 35,000  Climbing FlightAware
01:55PM 51.8915 -7.9391 42° Northeast 434 499 33,500 -2,520 Descending FlightAware UK
01:55PM 51.9194 -7.8975 43° Northeast 432 497 33,500 4,080 Level FlightAware UK
01:55PM 51.9140 -7.8870 43° Northeast 466 536 35,000  Climbing FlightAware
01:55PM 51.9576 -7.8417 43° Northeast 432 497 33,500 -2,400 Descending FlightAware UK
01:56PM 51.9861 -7.7998 42° Northeast 432 497 33,500 3,600 Level FlightAware UK
01:56PM 51.9880 -7.7790 42° Northeast 465 535 35,000  Climbing FlightAware
01:56PM 52.0240 -7.7439 42° Northeast 432 497 33,500 -2,580 Descending FlightAware UK
01:56PM 52.0525 -7.7020 42° Northeast 432 497 33,500 3,900 Level FlightAware UK
01:56PM 52.0520 -7.6860 42° Northeast 465 535 35,000  Climbing FlightAware
01:57PM 52.0998 -7.6319 42° Northeast 432 497 33,500 -2,100 Descending FlightAware UK
01:57PM 52.1282 -7.5899 42° Northeast 430 495 33,500 4,500 Level FlightAware UK
01:57PM 52.1230 -7.5810 42° Northeast 463 533 35,000  Climbing FlightAware
01:57PM 52.1564 -7.5478 42° Northeast 430 495 33,500 -2,700 Descending FlightAware UK
01:58PM 52.1848 -7.5057 42° Northeast 432 497 33,500 3,720 Level FlightAware UK
01:58PM 52.1870 -7.4860 42° Northeast 462 532 35,000  Climbing FlightAware
01:58PM 52.2320 -7.4356 42° Northeast 432 497 33,500  Descending FlightAware UK
01:58PM 52.2500 -7.3920 42° Northeast 462 532 35,000  Climbing FlightAware
01:58PM 52.2603 -7.3935 42° Northeast 430 495 33,500 -4,500 Descending FlightAware UK
01:59PM 52.2886 -7.3512 42° Northeast 430 495 33,500  Level FlightAware UK
01:59PM 52.3167 -7.3088 43° Northeast 432 497 33,500 3,600 Level FlightAware UK
01:59PM 52.3200 -7.2880 43° Northeast 461 531 35,000  Climbing FlightAware
01:59PM 52.3542 -7.2524 43° Northeast 430 495 33,500 -2,580 Descending FlightAware UK
02:00PM 52.3823 -7.2099 43° Northeast 430 495 33,500  Level FlightAware UK
02:00PM 52.4105 -7.1675 43° Northeast 430 495 33,500  Level FlightAware UK
02:00PM 52.4484 -7.1104 43° Northeast 430 495 33,500  Level FlightAware UK
02:01PM 52.4764 -7.0677 43° Northeast 430 495 33,500 4,980 Level FlightAware UK
02:01PM 52.4650 -7.0690 43° Northeast 461 531 35,000  Climbing FlightAware
02:01PM 52.5045 -7.0250 43° Northeast 430 495 33,500 -2,520 Descending FlightAware UK
02:01PM 52.5326 -6.9825 43° Northeast 430 495 33,500 3,300 Level FlightAware UK
02:01PM 52.5390 -6.9570 43° Northeast 461 531 35,000  Climbing FlightAware
02:02PM 52.5700 -6.9258 43° Northeast 430 495 33,500 -2,760 Descending FlightAware UK
02:02PM 52.5982 -6.8832 43° Northeast 430 495 33,500 3,000 Level FlightAware UK
02:02PM 52.6070 -6.8550 43° Northeast 461 531 35,000  Climbing FlightAware
02:03PM 52.6450 -6.8120 43° Northeast 430 495 33,500  Descending FlightAware UK
02:03PM 52.6700 -6.7590 43° Northeast 462 532 35,000  Climbing FlightAware
02:03PM 52.7106 -6.7121 43° Northeast 430 495 33,500 -2,400 Descending FlightAware UK
02:04PM 52.7387 -6.6690 43° Northeast 430 495 33,500 3,600 Level FlightAware UK
02:04PM 52.7360 -6.6590 43° Northeast 462 532 35,000  Climbing FlightAware
02:04PM 52.7761 -6.6115 43° Northeast 430 495 33,500  Descending FlightAware UK
02:04PM 52.7890 -6.5780 43° Northeast 463 533 35,000  Climbing FlightAware
02:04PM 52.8042 -6.5683 43° Northeast 432 497 33,500 -3,960 Descending FlightAware UK
02:05PM 52.8323 -6.5248 43° Northeast 432 497 33,500  Level FlightAware UK
02:05PM 52.8604 -6.4813 43° Northeast 430 495 33,500 4,080 Level FlightAware UK
02:05PM 52.8590 -6.4700 43° Northeast 462 532 35,000  Climbing FlightAware
02:05PM 52.8978 -6.4232 43° Northeast 432 497 33,500 -2,400 Descending FlightAware UK
02:06PM 52.9259 -6.3797 43° Northeast 430 495 33,500 3,000 Level FlightAware UK
02:06PM 52.9360 -6.3510 43° Northeast 463 533 35,000  Climbing FlightAware
02:06PM 52.9725 -6.3066 43° Northeast 430 495 33,500 -2,520 Descending FlightAware UK
02:06PM 53.0006 -6.2626 43° Northeast 430 495 33,500 4,080 Level FlightAware UK
02:06PM 53.0000 -6.2510 43° Northeast 463 533 35,000  Climbing FlightAware
02:07PM 53.0379 -6.2040 43° Northeast 432 497 33,500 -2,400 Descending FlightAware UK
02:07PM 53.0659 -6.1596 44° Northeast 432 497 33,500 3,600 Level FlightAware UK
02:07PM 53.0690 -6.1420 44° Northeast 464 534 35,000 -780 Climbing FlightAware
02:07PM 53.1033 -6.1005 44° Northeast 434 499 33,200 -4,140 Descending FlightAware UK
02:08PM 53.1315 -6.0559 43° Northeast 438 504 32,600 2,040 Descending FlightAware UK
02:08PM 53.1320 -6.0430 43° Northeast 468 539 34,000 -2,280 Climbing FlightAware
02:08PM 53.1695 -5.9955 43° Northeast 436 502 31,700 -4,560 Descending FlightAware UK
02:08PM 53.1977 -5.9505 44° Northeast 434 499 31,200 2,820 Descending FlightAware UK
02:08PM 53.1940 -5.9450 44° Northeast 461 531 32,700 -1,800 Climbing FlightAware
02:09PM 53.2439 -5.8774 44° Northeast 422 486 30,300 -1,740 Descending FlightAware UK
02:09PM 53.2650 -5.8340 44° Northeast 452 520 31,400 -1,680 Climbing FlightAware
02:10PM 53.2985 -5.7910 44° Northeast 410 472 29,300 -4,500 Descending FlightAware UK
02:10PM 53.3254 -5.7479 44° Northeast 408 470 28,700 2,700 Descending FlightAware UK
02:10PM 53.3220 -5.7430 44° Northeast 444 511 30,300 -1,800 Climbing FlightAware
02:10PM 53.3610 -5.6909 44° Northeast 404 465 28,000 -4,620 Descending FlightAware UK
02:11PM 53.3876 -5.6483 44° Northeast 404 465 27,400 1,920 Descending FlightAware UK
02:11PM 53.3890 -5.6360 44° Northeast 438 504 28,800 -1,800 Climbing FlightAware
02:11PM 53.4229 -5.5919 44° Northeast 400 460 26,700 -4,680 Descending FlightAware UK
02:11PM 53.4490 -5.5497 44° Northeast 400 460 26,100 2,340 Descending FlightAware UK
02:11PM 53.4460 -5.5440 44° Northeast 433 498 27,600 -1,500 Climbing FlightAware
02:12PM 53.4763 -5.4840 44° Northeast 396 456 25,500 -3,420 Descending FlightAware UK
02:12PM 53.4888 -5.4284 69° East 388 447 25,500 4,260 Level FlightAware UK
02:12PM 53.4840 -5.4270 69° East 420 483 27,000  Climbing FlightAware
02:12PM 53.4939 -5.3704 69° East 390 449 25,500 -2,760 Descending FlightAware UK
02:13PM 53.4913 -5.3120 94° East 394 453 25,500 3,000 Level FlightAware UK
02:13PM 53.4830 -5.2810 94° East 418 481 27,000  Climbing FlightAware
02:13PM 53.4802 -5.2160 94° East 396 456 25,500 -2,520 Descending FlightAware UK
02:13PM 53.4730 -5.1584 102° East 398 458 25,500 4,080 Level FlightAware UK
02:13PM 53.4670 -5.1540 102° East 421 484 27,000  Climbing FlightAware
02:14PM 53.4634 -5.0807 102° East 396 456 25,500  Descending FlightAware UK
02:14PM 53.4490 -5.0110 102° East 416 479 27,000  Climbing FlightAware
02:14PM 53.4465 -4.9468 102° East 390 449 25,500 -2,580 Descending FlightAware UK
02:15PM 53.4395 -4.8901 102° East 388 447 25,500 3,900 Level FlightAware UK
02:15PM 53.4330 -4.8850 102° East 413 475 27,000 -300 Climbing FlightAware
02:15PM 53.4299 -4.8150 102° East 390 449 25,400 -3,120 Descending FlightAware UK
02:15PM 53.4225 -4.7581 102° East 396 456 25,100 3,420 Descending FlightAware UK
02:15PM 53.4170 -4.7610 102° East 418 481 26,600 -1,020 Climbing FlightAware
02:16PM 53.4150 -4.7009 102° East 394 453 24,800 -3,840 Descending FlightAware UK
02:16PM 53.4077 -4.6442 102° East 392 451 24,500 1,980 Descending FlightAware UK
02:16PM 53.3970 -4.6170 102° East 402 463 25,800 -1,020 Climbing FlightAware
02:17PM 53.3966 -4.5535 102° East 382 440 24,000 -840 Descending FlightAware UK
02:17PM 53.3900 -4.5330 102° East 398 458 25,400 -600 Climbing FlightAware
02:17PM 53.3994 -4.4605 102° East 372 428 23,700 -3,180 Descending FlightAware UK
02:17PM 53.4073 -4.4066 76° East 372 428 23,500 3,060 Descending FlightAware UK
02:17PM 53.4020 -4.3990 76° East 398 458 25,100  Climbing FlightAware
02:18PM 53.4210 -4.3160 76° East 376 433 23,500 -2,520 Descending FlightAware UK
02:18PM 53.4294 -4.2615 75° East 378 435 23,500 3,060 Level FlightAware UK
02:18PM 53.4260 -4.2420 75° East 402 463 25,000  Climbing FlightAware
02:19PM 53.4436 -4.1702 75° East 380 437 23,500 -2,460 Descending FlightAware UK
02:19PM 53.4521 -4.1155 75° East 378 435 23,500 4,260 Level FlightAware UK
02:19PM 53.4440 -4.1280 75° East 400 460 25,000  Climbing FlightAware
02:19PM 53.4606 -4.0603 75° East 378 435 23,500 -2,700 Descending FlightAware UK
02:20PM 53.4691 -4.0058 75° East 378 435 23,500 2,880 Level FlightAware UK
02:20PM 53.4640 -3.9900 75° East 392 451 24,900 -1,200 Climbing FlightAware
02:20PM 53.4825 -3.9171 75° East 366 421 22,900 -1,500 Descending FlightAware UK
02:20PM 53.4820 -3.8720 75° East 385 443 23,900 -1,680 Climbing FlightAware
02:21PM 53.4985 -3.8119 75° East 360 414 21,900 -1,680 Descending FlightAware UK
02:21PM 53.4990 -3.7610 75° East 380 437 22,800 -1,740 Climbing FlightAware
02:21PM 53.5168 -3.6906 75° East 358 412 20,700 -4,500 Descending FlightAware UK
02:22PM 53.5245 -3.6391 76° East 354 407 20,200 1,920 Descending FlightAware UK
02:22PM 53.5180 -3.6310 76° East 373 429 21,600 -1,620 Climbing FlightAware
02:22PM 53.5372 -3.5540 76° East 350 403 19,400 -4,140 Descending FlightAware UK
02:22PM 53.5447 -3.5041 76° East 346 398 19,000 3,300 Descending FlightAware UK
02:22PM 53.5340 -3.5210 76° East 367 422 20,500 -1,680 Climbing FlightAware
02:23PM 53.5522 -3.4540 76° East 344 396 18,500 -4,440 Descending FlightAware UK
02:23PM 53.5596 -3.4045 76° East 342 394 18,000 1,860 Descending FlightAware UK
02:23PM 53.5520 -3.3980 76° East 359 413 19,400 -1,620 Climbing FlightAware
02:24PM 53.5717 -3.3219 76° East 338 389 17,200 -4,260 Descending FlightAware UK
02:24PM 53.5788 -3.2731 76° East 336 387 16,800 3,120 Descending FlightAware UK
02:24PM 53.5680 -3.2860 76° East 352 405 18,300 -1,680 Climbing FlightAware
02:24PM 53.5859 -3.2246 76° East 334 384 16,300 -4,020 Descending FlightAware UK
02:25PM 53.5951 -3.1617 76° East 330 380 15,700 1,560 Descending FlightAware UK
02:25PM 53.5850 -3.1690 76° East 345 397 17,100 -1,500 Climbing FlightAware
02:25PM 53.6044 -3.0984 76° East 328 377 15,100 -1,380 Descending FlightAware UK
02:25PM 53.5970 -3.0810 76° East 339 390 16,300 -1,500 Climbing FlightAware
02:26PM 53.6178 -3.0054 76° East 320 368 14,200 -4,260 Descending FlightAware UK
02:26PM 53.6245 -2.9592 76° East 318 366 13,700 2,040 Descending FlightAware UK
02:26PM 53.6140 -2.9650 76° East 332 382 15,100 -1,500 Climbing FlightAware
02:26PM 53.6335 -2.8982 76° East 314 361 13,100 -4,260 Descending FlightAware UK
02:27PM 53.6463 -2.8566 63° Northeast 312 359 12,700 1,440 Descending FlightAware UK
02:27PM 53.6380 -2.8600 63° Northeast 333 383 13,800 -3,000 Climbing FlightAware
02:27PM 53.6685 -2.7872 63° Northeast 324 373 11,200 -5,040 Descending FlightAware UK
02:27PM 53.6823 -2.7456 61° Northeast 316 364 10,700 3,120 Descending FlightAware UK
02:27PM 53.6690 -2.7670 61° Northeast 331 381 12,300 -720 Climbing FlightAware
02:28PM 53.6960 -2.7044 61° Northeast 306 352 10,500 -4,020 Descending FlightAware UK
02:28PM 53.7085 -2.6667 61° Northeast 298 343 10,100 1,980 Descending FlightAware UK
02:28PM 53.6980 -2.6780 61° Northeast 304 350 11,500 -1,620 Climbing FlightAware
02:28PM 53.7297 -2.6044 61° Northeast 290 334 9,300 -4,680 Descending FlightAware UK
02:29PM 53.7421 -2.5672 61° Northeast 288 331 8,700 2,400 Descending FlightAware UK
02:29PM 53.7270 -2.5910 61° Northeast 297 342 10,200 2,820 Climbing FlightAware
02:29PM 53.7380 -2.5590 60° Northeast 292 336 9,600 -5,280 Descending FlightAware
02:29PM 53.7660 -2.4946 60° Northeast 274 315 7,400 -1,920 Descending FlightAware UK
02:29PM 53.7530 -2.5120 60° Northeast 282 325 8,800 -2,040 Climbing FlightAware
02:30PM 53.7813 -2.4485 60° Northeast 270 311 6,600 -1,800 Descending FlightAware UK
02:30PM 53.7720 -2.4520 60° Northeast 280 322 7,900 2,220 Climbing FlightAware
02:30PM 53.7800 -2.4290 60° Northeast 277 319 7,700 -4,080 Descending FlightAware
02:31PM 53.8114 -2.3560 60° Northeast 264 304 5,600 -1,680 Descending FlightAware UK
02:31PM 53.7980 -2.3740 60° Northeast 274 315 7,000 -1,440 Climbing FlightAware
02:31PM 53.8266 -2.3101 60° Northeast 262 302 5,000 -1,200 Descending FlightAware UK
02:31PM 53.8170 -2.3190 60° Northeast 274 315 6,400 -840 Climbing FlightAware
02:31PM 53.8486 -2.2563 60° Northeast 260 299 4,600 -720 Descending FlightAware UK
02:32PM 53.8340 -2.2780 60° Northeast 272 313 6,100 -1,080 Climbing FlightAware
02:32PM 53.8663 -2.2153 60° Northeast 258 297 4,200 -1,020 Descending FlightAware UK
02:32PM 53.8560 -2.2260 60° Northeast 268 308 5,600 2,100 Climbing FlightAware
02:32PM 53.8680 -2.1990 53° Northeast 267 307 5,200 -4,320 Descending FlightAware
02:33PM 53.9012 -2.1323 53° Northeast 252 290 3,100 -1,200 Descending FlightAware UK
02:33PM 53.8840 -2.1600 53° Northeast 264 304 4,700  Climbing FlightAware
02:33PM 53.9188 -2.0911 53° Northeast 240 276 3,100 -240 Descending FlightAware UK
02:33PM 53.9060 -2.1070 53° Northeast 244 281 4,600 -840 Climbing FlightAware
02:34PM 53.9368 -2.0435 53° Northeast 230 265 2,700 -1,020 Descending FlightAware UK
02:34PM 53.9240 -2.0580 53° Northeast 236 272 4,100 2,880 Climbing FlightAware
02:34PM 53.9310 -2.0370 60° Northeast 231 266 3,900 -3,780 Descending FlightAware
02:34PM 53.9603 -1.9767 60° Northeast 216 249 2,100 -720 Descending FlightAware UK
02:34PM 53.9450 -1.9970 60° Northeast 224 258 3,600 -780 Climbing FlightAware
02:35PM 53.9734 -1.9398 60° Northeast 206 237 1,800 -840 Descending FlightAware UK
02:35PM 53.9610 -1.9530 60° Northeast 211 243 3,200 2,640 Climbing FlightAware
02:35PM 53.9640 -1.9320 76° East 200 230 3,100 -2,880 Descending FlightAware
02:35PM 53.9834 -1.8666 76° East 196 226 1,600  Descending FlightAware UK
02:36PM 53.9640 -1.8920 76° East 196 226 3,100  Climbing FlightAware
02:36PM 53.9764 -1.8349 76° East 174 200 1,600 180 Descending FlightAware UK
02:36PM 53.9530 -1.8580 76° East 170 196 3,200  Climbing FlightAware
02:36PM 53.9613 -1.8054 76° East 158 182 1,600 -420 Descending FlightAware UK
02:37PM 53.9370 -1.8310 76° East 150 173 3,000 -1,020 Climbing FlightAware
02:37PM 53.9458 -1.7828 76° East 156 180 1,100 -720 Descending FlightAware UK
02:37PM 53.9260 -1.8150 76° East 151 174 2,700 3,540 Climbing FlightAware
02:37PM 53.9170 -1.8020 140° Southeast 151 174 2,400 -3,780 Descending FlightAware
02:38PM 53.9239 -1.7500 140° Southeast 144 166 500 -960 Descending FlightAware UK
02:38PM 53.9040 -1.7820 140° Southeast 134 154 2,000 3,900 Climbing FlightAware
02:38PM 53.8970 -1.7720 140° Southeast 128 147 1,800 -840 Descending FlightAware
02:38PM 53.8850 -1.7540 139° Southeast 129 148 1,400 -840 Descending FlightAware
02:39PM 53.8770 -1.7430 141° Southeast 131 151 1,200 -300 Descending FlightAware
02:39PM 53.8660 -1.7260 138° Southeast 131 151 1,200  Level FlightAware
02:42PM 53.8659 -1.6606 90° East  Level Estimated
02:43PM 53.8659 -1.6606 169° South  Level Estimated
02:44PM 53.8659 -1.6606 169° South  Level Estimated
02:45PM 53.8659 -1.6606 169° South  Level Estimated
02:46PM 53.8659 -1.6606 169° South  Level Estimated
02:47PM 53.8659 -1.6606 169° South  Level Estimated
02:48PM 53.8659 -1.6606 169° South  Level Estimated
02:49PM 53.8659 -1.6606 169° South  Level Estimated
02:50PM 53.8659 -1.6606 169° South  Level Estimated